createdAt,value
2019-04-03T00:00:24.188Z,19.70
2019-04-03T00:02:51.475Z,18.77
2019-04-03T00:05:18.825Z,20.60
2019-04-03T00:07:46.286Z,19.50
2019-04-03T00:10:13.686Z,22.17
2019-04-03T00:12:41.284Z,21.07
2019-04-03T00:15:08.903Z,21.20
2019-04-03T00:17:36.268Z,20.30
2019-04-03T00:20:05.281Z,20.50
2019-04-03T00:22:32.672Z,19.83
2019-04-03T00:25:00.045Z,20.83
2019-04-03T00:27:27.335Z,21.20
2019-04-03T00:29:54.688Z,21.90
2019-04-03T00:32:23.368Z,19.07
2019-04-03T00:34:51.800Z,20.70
2019-04-03T00:37:20.048Z,20.20
2019-04-03T00:39:47.476Z,20.57
2019-04-03T00:42:14.756Z,21.33
2019-04-03T00:44:42.135Z,20.90
2019-04-03T00:47:09.501Z,20.03
2019-04-03T00:49:37.104Z,20.70
2019-04-03T00:52:04.990Z,22.90
2019-04-03T00:54:32.355Z,20.50
2019-04-03T00:56:59.648Z,21.70
2019-04-03T00:59:27.064Z,19.50
2019-04-03T01:01:56.060Z,20.83
2019-04-03T01:04:23.428Z,20.10
2019-04-03T01:06:51.278Z,18.60
2019-04-03T01:09:18.645Z,18.87
2019-04-03T01:11:45.928Z,19.20
2019-04-03T01:14:13.639Z,20.20
2019-04-03T01:16:40.941Z,19.40
2019-04-03T01:19:08.440Z,22.20
2019-04-03T01:21:37.276Z,20.27
2019-04-03T01:24:07.654Z,21.40
2019-04-03T01:26:33.993Z,20.37
2019-04-03T01:29:01.292Z,19.80
2019-04-03T01:31:28.581Z,21.70
2019-04-03T01:33:55.863Z,20.27
2019-04-03T01:36:23.229Z,20.73
2019-04-03T01:38:50.509Z,20.97
2019-04-03T01:41:18.869Z,20.60
2019-04-03T01:43:46.831Z,21.00
2019-04-03T01:46:14.269Z,20.10
2019-04-03T01:48:41.602Z,19.90
2019-04-03T01:51:08.929Z,20.87
2019-04-03T01:53:36.280Z,21.93
2019-04-03T01:56:05.092Z,21.83
2019-04-03T01:58:32.588Z,20.73
2019-04-03T02:00:59.984Z,20.90
2019-04-03T02:03:27.304Z,22.23
2019-04-03T02:05:54.753Z,22.13
2019-04-03T02:08:22.087Z,22.10
2019-04-03T02:10:49.645Z,21.10
2019-04-03T02:13:17.022Z,23.43
2019-04-03T02:15:44.485Z,20.90
2019-04-03T02:18:11.918Z,21.67
2019-04-03T02:20:39.456Z,21.80
2019-04-03T02:23:06.734Z,20.00
2019-04-03T02:25:34.016Z,20.23
2019-04-03T02:28:03.256Z,21.60
2019-04-03T02:30:30.381Z,21.10
2019-04-03T02:32:57.889Z,21.23
2019-04-03T02:35:25.485Z,21.70
2019-04-03T02:37:52.756Z,21.33
2019-04-03T02:40:20.055Z,23.00
2019-04-03T02:42:47.534Z,21.40
2019-04-03T02:45:15.395Z,22.63
2019-04-03T02:47:42.813Z,21.50
2019-04-03T02:50:14.007Z,22.80
2019-04-03T02:52:39.395Z,22.13
2019-04-03T02:55:07.605Z,22.90
2019-04-03T02:57:35.599Z,22.47
2019-04-03T03:00:03.007Z,23.20
2019-04-03T03:02:30.281Z,23.40
2019-04-03T03:04:57.899Z,22.43
2019-04-03T03:07:25.622Z,23.27
2019-04-03T03:09:53.236Z,22.67
2019-04-03T03:12:20.721Z,23.40
2019-04-03T03:14:48.210Z,22.90
2019-04-03T03:17:16.801Z,24.77
2019-04-03T03:19:44.106Z,23.63
2019-04-03T03:22:11.521Z,21.23
2019-04-03T03:24:38.930Z,23.60
2019-04-03T03:27:09.461Z,22.57
2019-04-03T03:29:35.564Z,22.10
2019-04-03T03:32:12.688Z,23.23
2019-04-03T03:34:50.678Z,22.10
2019-04-03T03:37:03.319Z,24.30
2019-04-03T03:39:32.142Z,23.03
2019-04-03T03:41:59.820Z,22.80
2019-04-03T03:44:27.403Z,23.17
2019-04-03T03:46:59.349Z,25.40
2019-04-03T03:49:24.809Z,23.27
2019-04-03T03:51:52.673Z,24.70
2019-04-03T03:54:20.507Z,22.97
2019-04-03T03:56:48.096Z,23.47
2019-04-03T03:59:17.997Z,23.17
2019-04-03T04:01:44.912Z,22.67
2019-04-03T04:04:14.278Z,23.63
2019-04-03T04:06:41.692Z,22.70
2019-04-03T04:09:09.330Z,24.83
2019-04-03T04:11:36.669Z,23.63
2019-04-03T04:14:04.310Z,23.00
2019-04-03T04:16:35.922Z,23.40
2019-04-03T04:19:01.015Z,22.77
2019-04-03T04:21:28.420Z,26.07
2019-04-03T04:23:57.239Z,23.00
2019-04-03T04:26:25.006Z,22.93
2019-04-03T04:28:52.311Z,23.90
2019-04-03T04:31:19.726Z,24.03
2019-04-03T04:33:47.992Z,23.73
2019-04-03T04:36:15.750Z,23.73
2019-04-03T04:38:43.027Z,24.50
2019-04-03T04:41:10.356Z,22.97
2019-04-03T04:43:39.398Z,22.50
2019-04-03T04:46:08.933Z,23.87
2019-04-03T04:48:35.744Z,24.17
2019-04-03T04:51:03.029Z,23.30
2019-04-03T04:53:30.772Z,23.60
2019-04-03T04:55:58.198Z,23.90
2019-04-03T04:58:25.545Z,24.60
2019-04-03T05:00:53.456Z,23.87
2019-04-03T05:03:21.838Z,24.43
2019-04-03T05:05:49.810Z,24.70
2019-04-03T05:08:17.090Z,23.80
2019-04-03T05:10:44.403Z,28.60
2019-04-03T05:13:11.753Z,27.03
2019-04-03T05:15:39.528Z,26.20
2019-04-03T05:18:07.029Z,27.43
2019-04-03T05:20:34.368Z,25.40
2019-04-03T05:23:01.726Z,23.87
2019-04-03T05:25:29.847Z,26.90
2019-04-03T05:27:57.669Z,25.00
2019-04-03T05:30:28.551Z,25.20
2019-04-03T05:32:55.920Z,26.10
2019-04-03T05:35:23.389Z,26.10
2019-04-03T05:37:51.495Z,25.47
2019-04-03T05:40:19.046Z,25.77
2019-04-03T05:42:46.432Z,25.93
2019-04-03T05:45:13.773Z,25.30
2019-04-03T05:47:41.349Z,25.83
2019-04-03T05:50:09.012Z,26.90
2019-04-03T05:52:36.288Z,25.03
2019-04-03T05:55:04.336Z,26.20
2019-04-03T05:57:31.635Z,24.63
2019-04-03T06:00:01.859Z,25.53
2019-04-03T06:02:27.978Z,27.17
2019-04-03T06:04:55.352Z,26.00
2019-04-03T06:07:22.705Z,24.90
2019-04-03T06:09:50.098Z,28.60
2019-04-03T06:12:19.149Z,26.30
2019-04-03T06:14:46.578Z,29.03
2019-04-03T06:17:15.557Z,26.17
2019-04-03T06:19:43.088Z,27.37
2019-04-03T06:22:10.801Z,27.13
2019-04-03T06:24:38.204Z,26.67
2019-04-03T06:27:05.503Z,28.20
2019-04-03T06:29:32.846Z,28.00
2019-04-03T06:32:00.260Z,26.70
2019-04-03T06:34:27.608Z,26.67
2019-04-03T06:36:54.913Z,27.30
2019-04-03T06:39:24.041Z,28.30
2019-04-03T06:41:51.409Z,28.67
2019-04-03T06:44:22.051Z,29.20
2019-04-03T06:46:47.814Z,27.77
2019-04-03T06:49:15.081Z,28.57
2019-04-03T06:51:42.387Z,26.30
2019-04-03T06:54:09.998Z,28.40
2019-04-03T06:56:40.013Z,27.63
2019-04-03T06:59:06.461Z,29.67
2019-04-03T07:01:33.938Z,27.93
2019-04-03T07:04:01.458Z,26.83
2019-04-03T07:06:28.930Z,28.17
2019-04-03T07:08:56.319Z,27.20
2019-04-03T07:11:24.141Z,26.20
2019-04-03T07:13:53.619Z,27.37
2019-04-03T07:16:20.681Z,26.20
2019-04-03T07:18:48.440Z,27.67
2019-04-03T07:21:15.928Z,26.23
2019-04-03T07:23:43.672Z,24.60
2019-04-03T07:26:10.949Z,26.17
2019-04-03T07:28:40.613Z,26.20
2019-04-03T07:31:07.422Z,27.97
2019-04-03T07:33:35.007Z,28.20
2019-04-03T07:36:02.576Z,26.47
2019-04-03T07:38:30.067Z,25.57
2019-04-03T07:40:57.442Z,24.87
2019-04-03T07:43:26.855Z,24.63
2019-04-03T07:45:53.781Z,24.50
2019-04-03T07:48:21.071Z,24.00
2019-04-03T07:50:48.537Z,23.10
2019-04-03T07:53:15.937Z,22.60
2019-04-03T07:55:44.234Z,25.63
2019-04-03T07:58:11.733Z,24.20
2019-04-03T08:00:39.250Z,23.83
2019-04-03T08:03:06.961Z,23.93
2019-04-03T08:05:34.453Z,23.83
2019-04-03T08:08:02.503Z,24.93
2019-04-03T08:10:30.602Z,24.87
2019-04-03T08:12:59.382Z,23.87
2019-04-03T08:15:27.118Z,24.03
2019-04-03T08:17:56.958Z,24.57
2019-04-03T08:20:25.709Z,24.33
2019-04-03T08:22:52.756Z,24.27
2019-04-03T08:25:20.088Z,24.63
2019-04-03T08:27:47.392Z,25.57
2019-04-03T08:30:15.033Z,23.10
2019-04-03T08:32:42.318Z,24.20
2019-04-03T08:35:20.354Z,22.30
2019-04-03T08:37:41.652Z,22.70
2019-04-03T08:40:08.579Z,23.00
2019-04-03T08:42:36.018Z,23.90
2019-04-03T08:45:05.740Z,23.40
2019-04-03T08:47:32.472Z,21.53
2019-04-03T08:50:01.556Z,23.20
2019-04-03T08:52:28.768Z,21.50
2019-04-03T08:54:56.088Z,21.57
2019-04-03T08:57:23.364Z,21.47
2019-04-03T08:59:50.666Z,21.47
2019-04-03T09:02:18.215Z,22.03
2019-04-03T09:04:47.512Z,19.37
2019-04-03T09:07:14.641Z,21.03
2019-04-03T09:09:41.929Z,21.07
2019-04-03T09:12:09.311Z,19.87
2019-04-03T09:14:37.003Z,21.00
2019-04-03T09:17:04.518Z,21.20
2019-04-03T09:19:31.801Z,17.87
2019-04-03T09:21:59.125Z,18.20
2019-04-03T09:24:29.071Z,17.77
2019-04-03T09:26:55.400Z,18.70
2019-04-03T09:29:22.994Z,19.10
2019-04-03T09:31:51.402Z,18.17
2019-04-03T09:34:20.442Z,17.47
2019-04-03T09:36:48.092Z,17.97
2019-04-03T09:39:15.594Z,16.60
2019-04-03T09:41:43.373Z,17.43
2019-04-03T09:44:10.714Z,17.80
2019-04-03T09:46:38.009Z,15.80
2019-04-03T09:49:05.719Z,17.80
2019-04-03T09:51:34.433Z,18.83
2019-04-03T09:54:01.700Z,18.10
2019-04-03T09:56:29.065Z,19.40
2019-04-03T09:58:56.740Z,18.00
2019-04-03T10:01:24.184Z,18.93
2019-04-03T10:03:53.782Z,19.43
2019-04-03T10:06:20.571Z,18.37
2019-04-03T10:08:48.316Z,19.20
2019-04-03T10:11:15.880Z,18.57
2019-04-03T10:13:44.083Z,17.90
2019-04-03T10:16:11.386Z,18.30
2019-04-03T10:18:40.863Z,18.30
2019-04-03T10:21:07.833Z,18.17
2019-04-03T10:23:35.442Z,18.93
2019-04-03T10:26:02.777Z,18.10
2019-04-03T10:28:30.246Z,16.80
2019-04-03T10:30:57.529Z,14.53
2019-04-03T10:33:24.886Z,13.77
2019-04-03T10:35:52.184Z,12.53
2019-04-03T10:38:19.513Z,10.53
2019-04-03T10:40:47.004Z,9.57
2019-04-03T10:43:14.361Z,8.30
2019-04-03T10:45:41.693Z,8.87
2019-04-03T10:48:09.058Z,9.70
2019-04-03T10:50:37.949Z,9.63
2019-04-03T10:53:05.561Z,10.80
2019-04-03T10:55:32.902Z,9.67
2019-04-03T10:58:01.917Z,9.90
2019-04-03T11:00:29.617Z,10.40
2019-04-03T11:02:57.354Z,10.70
2019-04-03T11:05:25.110Z,11.20
2019-04-03T11:07:52.444Z,9.80
2019-04-03T11:10:19.948Z,10.60
2019-04-03T11:12:47.634Z,10.60
2019-04-03T11:15:16.990Z,10.20
2019-04-03T11:17:44.374Z,9.70
2019-04-03T11:20:13.289Z,10.93
2019-04-03T11:22:42.619Z,9.60
2019-04-03T11:25:13.174Z,10.20
2019-04-03T11:30:14.024Z,9.40
2019-04-03T11:30:54.712Z,10.07
2019-04-03T11:32:41.679Z,10.30
2019-04-03T11:35:09.470Z,10.80
2019-04-03T11:37:37.198Z,10.07
2019-04-03T11:40:06.325Z,9.00
2019-04-03T11:42:33.873Z,10.10
2019-04-03T11:45:04.338Z,10.37
2019-04-03T11:47:30.201Z,9.33
2019-04-03T11:49:57.780Z,10.57
2019-04-03T11:52:25.394Z,9.40
2019-04-03T11:54:53.422Z,10.40
2019-04-03T11:57:20.868Z,9.97
2019-04-03T11:59:48.152Z,9.17
2019-04-03T12:02:15.431Z,9.77
2019-04-03T12:04:44.467Z,9.40
2019-04-03T12:07:12.053Z,9.90
2019-04-03T12:09:39.554Z,9.17
2019-04-03T12:12:08.929Z,9.80
2019-04-03T12:14:36.378Z,9.83
2019-04-03T12:17:03.878Z,10.57
2019-04-03T12:19:31.638Z,10.60
2019-04-03T12:21:59.030Z,9.10
2019-04-03T12:24:26.330Z,10.00
2019-04-03T12:26:55.454Z,9.33
2019-04-03T12:29:23.164Z,9.40
2019-04-03T12:31:50.633Z,9.60
2019-04-03T12:34:17.949Z,8.60
2019-04-03T12:36:46.101Z,8.70
2019-04-03T12:39:15.577Z,9.40
2019-04-03T12:41:43.577Z,9.20
2019-04-03T12:44:11.261Z,9.43
2019-04-03T12:46:40.848Z,8.57
2019-04-03T12:49:08.002Z,9.47
2019-04-03T12:51:35.841Z,8.30
2019-04-03T12:54:04.073Z,7.70
2019-04-03T12:56:31.558Z,8.70
2019-04-03T12:58:58.826Z,7.67
2019-04-03T13:01:26.093Z,8.40
2019-04-03T13:03:55.955Z,8.20
2019-04-03T13:06:22.449Z,8.90
2019-04-03T13:08:49.785Z,8.30
2019-04-03T13:11:19.051Z,7.43
2019-04-03T13:13:46.083Z,7.50
2019-04-03T13:16:13.613Z,7.73
2019-04-03T13:18:40.999Z,8.10
2019-04-03T13:21:09.378Z,7.23
2019-04-03T13:23:36.988Z,7.00
2019-04-03T13:26:04.382Z,7.93
2019-04-03T13:28:31.708Z,7.20
2019-04-03T13:31:00.643Z,7.33
2019-04-03T13:33:28.045Z,6.90
2019-04-03T13:35:55.313Z,6.00
2019-04-03T13:38:22.875Z,5.70
2019-04-03T13:40:50.476Z,5.70
2019-04-03T13:43:21.003Z,5.90
2019-04-03T13:45:47.388Z,6.30
2019-04-03T13:48:14.692Z,5.53
2019-04-03T13:50:41.968Z,5.13
2019-04-03T13:53:09.379Z,5.70
2019-04-03T13:55:39.696Z,4.93
2019-04-03T13:58:05.903Z,5.47
2019-04-03T14:00:33.963Z,4.50
2019-04-03T14:03:01.519Z,4.83
2019-04-03T14:05:32.254Z,5.10
2019-04-03T14:07:58.245Z,4.77
2019-04-03T14:10:26.922Z,5.50
2019-04-03T14:12:54.737Z,6.00
2019-04-03T14:15:22.044Z,5.40
2019-04-03T14:17:56.507Z,5.23
2019-04-03T14:20:18.856Z,5.70
2019-04-03T14:22:46.584Z,5.40
2019-04-03T14:25:21.344Z,6.17
2019-04-03T14:27:43.133Z,5.00
2019-04-03T14:30:12.027Z,6.30
2019-04-03T14:32:40.127Z,5.70
2019-04-03T14:35:35.039Z,6.30
2019-04-03T14:37:36.482Z,7.00
2019-04-03T14:40:05.714Z,5.90
2019-04-03T14:42:33.201Z,5.90
2019-04-03T14:45:00.488Z,5.37
2019-04-03T14:47:28.423Z,5.70
2019-04-03T14:49:56.112Z,5.93
2019-04-03T14:52:23.996Z,6.20
2019-04-03T14:54:51.650Z,5.30
2019-04-03T14:57:22.263Z,4.50
2019-04-03T14:59:48.053Z,4.80
2019-04-03T15:02:15.932Z,4.70
2019-04-03T15:04:43.323Z,4.90
2019-04-03T15:07:10.894Z,3.83
2019-04-03T15:09:38.700Z,4.20
2019-04-03T15:12:07.034Z,4.90
2019-04-03T15:14:34.793Z,4.30
2019-04-03T15:17:04.400Z,5.00
2019-04-03T15:19:31.244Z,5.30
2019-04-03T15:22:01.713Z,6.40
2019-04-03T15:24:28.036Z,8.93
2019-04-03T15:26:55.454Z,6.17
2019-04-03T15:29:23.015Z,5.90
2019-04-03T15:31:50.361Z,5.90
2019-04-03T15:34:17.705Z,4.67
2019-04-03T15:36:45.092Z,5.13
2019-04-03T15:39:16.483Z,5.10
2019-04-03T15:41:42.628Z,5.30
2019-04-03T15:44:09.985Z,5.93
2019-04-03T15:46:37.428Z,5.30
2019-04-03T15:49:05.275Z,5.13
2019-04-03T15:51:32.581Z,6.30
2019-04-03T15:54:00.397Z,5.90
2019-04-03T15:56:28.316Z,5.27
2019-04-03T15:58:57.870Z,5.10
2019-04-03T16:01:25.468Z,5.80
2019-04-03T16:03:53.363Z,5.53
2019-04-03T16:06:21.161Z,6.00
2019-04-03T16:08:48.683Z,5.30
2019-04-03T16:11:15.990Z,5.80
2019-04-03T16:13:46.094Z,5.07
2019-04-03T16:16:12.617Z,5.67
2019-04-03T16:18:39.997Z,6.27
2019-04-03T16:21:07.492Z,5.80
2019-04-03T16:23:36.871Z,6.80
2019-04-03T16:26:03.925Z,6.37
2019-04-03T16:28:33.359Z,7.60
2019-04-03T16:31:00.238Z,7.50
2019-04-03T16:33:27.834Z,6.80
2019-04-03T16:35:55.228Z,7.93
2019-04-03T16:38:22.861Z,7.20
2019-04-03T16:40:50.329Z,7.43
2019-04-03T16:43:21.174Z,6.60
2019-04-03T16:45:47.758Z,7.30
2019-04-03T16:48:16.861Z,7.20
2019-04-03T16:50:44.117Z,7.47
2019-04-03T16:53:11.568Z,7.20
2019-04-03T16:55:38.908Z,7.97
2019-04-03T16:58:06.714Z,7.07
2019-04-03T17:00:34.197Z,7.90
2019-04-03T17:03:01.462Z,7.83
2019-04-03T17:05:28.900Z,7.17
2019-04-03T17:07:56.262Z,7.80
2019-04-03T17:10:23.598Z,7.40
2019-04-03T17:12:50.878Z,8.47
2019-04-03T17:15:18.346Z,8.10
2019-04-03T17:17:46.825Z,7.77
2019-04-03T17:20:14.978Z,8.20
2019-04-03T17:22:45.025Z,8.23
2019-04-03T17:25:11.727Z,7.80
2019-04-03T17:27:39.305Z,6.90
2019-04-03T17:30:07.656Z,9.07
2019-04-03T17:32:35.413Z,8.47
2019-04-03T17:35:02.890Z,8.30
2019-04-03T17:37:30.998Z,8.23
2019-04-03T17:39:58.343Z,8.40
2019-04-03T17:42:25.954Z,8.10
2019-04-03T17:44:53.343Z,8.10
2019-04-03T17:47:20.624Z,8.67
2019-04-03T17:49:49.317Z,9.20
2019-04-03T17:52:16.662Z,10.00
2019-04-03T17:54:44.033Z,9.13
2019-04-03T17:57:11.915Z,9.30
2019-04-03T17:59:40.450Z,9.00
2019-04-03T18:02:07.751Z,10.40
2019-04-03T18:04:35.144Z,10.40
2019-04-03T18:07:02.561Z,10.20
2019-04-03T18:09:29.916Z,9.93
2019-04-03T18:11:58.095Z,10.53
2019-04-03T18:14:26.576Z,10.93
2019-04-03T18:16:54.414Z,10.87
2019-04-03T18:19:21.792Z,10.83
2019-04-03T18:21:49.491Z,10.87
2019-04-03T18:24:16.982Z,11.27
2019-04-03T18:26:45.070Z,11.23
2019-04-03T18:29:12.491Z,10.90
2019-04-03T18:31:39.856Z,11.37
2019-04-03T18:34:07.226Z,10.87
2019-04-03T18:36:35.559Z,10.60
2019-04-03T18:39:04.629Z,10.00
2019-04-03T18:41:32.036Z,10.97
2019-04-03T18:43:59.413Z,11.03
2019-04-03T18:46:32.535Z,10.93
2019-04-03T18:49:00.894Z,9.80
2019-04-03T18:51:24.841Z,10.53
2019-04-03T18:53:52.202Z,9.50
2019-04-03T18:56:21.022Z,9.80
2019-04-03T18:58:49.542Z,9.27
2019-04-03T19:01:17.236Z,11.00
2019-04-03T19:03:44.685Z,11.43
2019-04-03T19:06:13.725Z,10.77
2019-04-03T19:08:41.367Z,10.70
2019-04-03T19:11:09.680Z,10.83
2019-04-03T19:13:37.845Z,10.60
2019-04-03T19:16:08.035Z,10.80
2019-04-03T19:18:34.356Z,10.93
2019-04-03T19:21:02.959Z,10.53
2019-04-03T19:23:30.260Z,11.10
2019-04-03T19:25:58.118Z,11.43
2019-04-03T19:28:26.982Z,12.50
2019-04-03T19:30:54.356Z,10.27
2019-04-03T19:33:21.866Z,11.03
2019-04-03T19:35:49.454Z,10.70
2019-04-03T19:38:16.842Z,9.50
2019-04-03T19:40:44.226Z,10.47
2019-04-03T19:43:14.659Z,9.67
2019-04-03T19:45:41.380Z,10.43
2019-04-03T19:48:10.216Z,10.37
2019-04-03T19:50:37.721Z,10.63
2019-04-03T19:53:07.873Z,11.40
2019-04-03T19:55:36.085Z,9.90
2019-04-03T19:58:03.702Z,10.40
2019-04-03T20:00:31.133Z,10.03
2019-04-03T20:02:58.413Z,11.30
2019-04-03T20:05:28.100Z,10.43
2019-04-03T20:07:58.687Z,10.13
2019-04-03T20:10:24.612Z,10.97
2019-04-03T20:12:52.152Z,10.20
2019-04-03T20:15:22.542Z,9.97
2019-04-03T20:17:49.743Z,10.00
2019-04-03T20:20:17.638Z,9.90
2019-04-03T20:22:45.106Z,10.10
2019-04-03T20:25:14.699Z,10.50
2019-04-03T20:27:41.694Z,11.30
2019-04-03T20:30:10.640Z,10.43
2019-04-03T20:32:40.745Z,12.50
2019-04-03T20:35:10.609Z,11.57
2019-04-03T20:37:38.073Z,11.70
2019-04-03T20:40:05.816Z,12.57
2019-04-03T20:42:33.300Z,11.33
2019-04-03T20:45:00.676Z,12.13
2019-04-03T20:47:27.978Z,12.07
2019-04-03T20:49:55.356Z,12.30
2019-04-03T20:52:22.734Z,11.00
2019-04-03T20:54:52.787Z,11.27
2019-04-03T20:57:19.148Z,12.23
2019-04-03T20:59:58.593Z,11.87
2019-04-03T21:02:15.520Z,11.97
2019-04-03T21:04:42.974Z,12.23
2019-04-03T21:07:10.369Z,9.90
2019-04-03T21:09:37.672Z,10.67
2019-04-03T21:12:05.627Z,10.70
2019-04-03T21:14:33.037Z,10.20
2019-04-03T21:17:00.523Z,10.20
2019-04-03T21:19:27.921Z,11.07
2019-04-03T21:21:55.306Z,10.90
2019-04-03T21:24:22.629Z,11.30
2019-04-03T21:26:50.170Z,11.10
2019-04-03T21:29:17.528Z,10.07
2019-04-03T21:31:44.860Z,9.70
2019-04-03T21:34:12.254Z,11.47
2019-04-03T21:36:39.592Z,10.07
2019-04-03T21:39:07.419Z,10.40
2019-04-03T21:41:34.897Z,10.13
2019-04-03T21:44:02.452Z,10.67
2019-04-03T21:46:30.150Z,10.73
2019-04-03T21:48:58.795Z,11.00
2019-04-03T21:51:26.150Z,10.27
2019-04-03T21:53:55.829Z,10.17
2019-04-03T21:56:22.500Z,11.00
2019-04-03T21:58:49.868Z,10.80
2019-04-03T22:01:18.702Z,11.20
2019-04-03T22:03:46.258Z,11.20
2019-04-03T22:06:13.619Z,10.50
2019-04-03T22:08:40.972Z,10.53
2019-04-03T22:11:08.442Z,11.83
2019-04-03T22:13:38.235Z,11.17
2019-04-03T22:16:04.962Z,10.70
2019-04-03T22:18:32.432Z,10.93
2019-04-03T22:20:59.932Z,11.23
2019-04-03T22:23:28.741Z,11.63
2019-04-03T22:25:56.068Z,12.20
2019-04-03T22:28:23.459Z,10.70
2019-04-03T22:30:52.215Z,11.60
2019-04-03T22:33:19.939Z,10.83
2019-04-03T22:35:47.398Z,11.57
2019-04-03T22:38:15.046Z,11.73
2019-04-03T22:40:42.340Z,12.37
2019-04-03T22:43:09.711Z,11.90
2019-04-03T22:45:37.088Z,12.00
2019-04-03T22:48:04.591Z,12.20
2019-04-03T22:50:35.147Z,12.07
2019-04-03T22:53:02.227Z,11.40
2019-04-03T22:55:29.602Z,11.70
2019-04-03T22:57:56.896Z,12.00
2019-04-03T23:00:25.871Z,11.40
2019-04-03T23:02:53.323Z,10.70
2019-04-03T23:05:20.669Z,12.13
2019-04-03T23:07:47.946Z,12.10
2019-04-03T23:10:15.261Z,12.17
2019-04-03T23:12:42.572Z,12.93
2019-04-03T23:15:10.004Z,12.23
2019-04-03T23:17:37.484Z,10.80
2019-04-03T23:20:05.314Z,12.73
2019-04-03T23:22:32.625Z,11.00
2019-04-03T23:25:00.138Z,11.60
2019-04-03T23:27:27.483Z,11.80
2019-04-03T23:29:54.825Z,11.37
2019-04-03T23:32:22.160Z,12.50
2019-04-03T23:34:50.073Z,12.50
2019-04-03T23:37:17.624Z,13.37
2019-04-03T23:39:45.286Z,11.97
2019-04-03T23:42:12.585Z,12.50
2019-04-03T23:44:41.733Z,12.13
2019-04-03T23:47:08.974Z,11.70
2019-04-03T23:49:36.334Z,11.23
2019-04-03T23:52:03.610Z,11.57
2019-04-03T23:54:33.627Z,12.63
2019-04-03T23:56:59.993Z,10.77
2019-04-03T23:59:27.283Z,11.37
